Time;durP1;ratioP1;P1;durP2;ratioP2;P2;SDS_P1;SDS_P2;PMS_P1;PMS_P2;Temp;Humidity;BMP_temperature;BMP_pressure;BME280_temperature;BME280_humidity;BME280_pressure;Samples;Min_cycle;Max_cycle;Signal;HPM_P1;HPM_P2
2022/06/12 00:02:00;;;;;;;;;;;15.50;92.50;;;;;;4217863;28;19931;-82
2022/06/12 00:04:01;;;;;;;;;;;15.50;92.80;;;;;;4217803;28;19920;-82
2022/06/12 00:06:03;;;;;;;;;;;15.50;92.90;;;;;;4217226;28;20372;-82
2022/06/12 00:08:05;;;;;;;;;;;15.50;93.10;;;;;;4217508;28;19979;-82
2022/06/12 00:10:05;;;;;;;;;;;15.40;93.10;;;;;;4217827;28;20381;-82
2022/06/12 00:12:06;;;;;;;;;;;15.40;93.20;;;;;;4216844;28;19930;-81
2022/06/12 00:14:07;;;;;;;;;;;15.40;93.30;;;;;;4217179;28;19927;-82
2022/06/12 00:16:09;;;;;;;;;;;15.40;94.00;;;;;;4217439;28;19920;-82
2022/06/12 00:18:09;;;;;;;;;;;15.40;93.50;;;;;;4217478;28;19920;-81
2022/06/12 00:20:11;;;;;;;;;;;15.40;93.60;;;;;;4217584;28;20022;-82
2022/06/12 00:22:12;;;;;;;;;;;15.30;93.70;;;;;;4221369;28;20375;-82
2022/06/12 00:24:14;;;;;;;;;;;15.30;94.00;;;;;;4215999;28;19920;-82
2022/06/12 00:26:17;;;;;;;;;;;15.30;94.30;;;;;;4234547;28;19973;-82
2022/06/12 00:28:18;;;;;;;;;;;15.30;94.60;;;;;;4233740;28;19924;-82
2022/06/12 00:30:20;;;;;;;;;;;15.30;94.70;;;;;;4234046;28;20043;-82
2022/06/12 00:32:21;;;;;;;;;;;15.30;94.60;;;;;;4234557;28;20034;-82
2022/06/12 00:34:23;;;;;;;;;;;15.20;95.10;;;;;;4234227;28;19919;-82
2022/06/12 00:36:24;;;;;;;;;;;15.20;95.10;;;;;;4233821;28;19920;-82
2022/06/12 00:38:25;;;;;;;;;;;15.10;95.10;;;;;;4216169;28;19924;-82
2022/06/12 00:40:26;;;;;;;;;;;15.10;95.20;;;;;;4216278;28;20311;-82
2022/06/12 00:42:26;;;;;;;;;;;15.00;95.10;;;;;;4215700;28;19920;-82
2022/06/12 00:44:34;;;;;;;;;;;15.00;95.50;;;;;;4233994;28;20339;-82
2022/06/12 00:46:35;;;;;;;;;;;15.00;95.50;;;;;;4234122;28;19923;-82
2022/06/12 00:48:37;;;;;;;;;;;14.90;95.60;;;;;;4233875;28;19920;-82
2022/06/12 00:50:41;;;;;;;;;;;14.90;96.00;;;;;;4233913;28;20287;-82
2022/06/12 00:52:45;;;;;;;;;;;14.80;96.00;;;;;;4233238;28;19920;-82
2022/06/12 00:54:47;;;;;;;;;;;14.80;96.10;;;;;;4233801;28;19927;-82
2022/06/12 00:56:51;;;;;;;;;;;14.80;96.00;;;;;;4236076;28;19920;-81
2022/06/12 00:59:12;;;;;;;;;;;14.80;96.50;;;;;;4233688;28;20287;-82
2022/06/12 01:01:18;;;;;;;;;;;14.80;96.40;;;;;;4233060;28;19926;-82
2022/06/12 01:03:19;;;;;;;;;;;14.80;96.70;;;;;;4233172;28;19920;-82
2022/06/12 01:07:48;;;;;;;;;;;14.70;96.90;;;;;;4233712;28;19942;-83
2022/06/12 01:09:50;;;;;;;;;;;14.70;97.80;;;;;;4233721;28;20053;-82
2022/06/12 01:11:53;;;;;;;;;;;14.70;97.80;;;;;;4215306;28;20284;-82
2022/06/12 01:13:54;;;;;;;;;;;14.70;97.90;;;;;;4233820;28;19920;-83
2022/06/12 01:16:02;;;;;;;;;;;14.70;98.30;;;;;;4233642;28;20004;-82
2022/06/12 01:18:06;;;;;;;;;;;14.70;97.70;;;;;;4215305;28;20006;-82
2022/06/12 01:20:08;;;;;;;;;;;14.70;97.40;;;;;;4215661;28;19924;-82
2022/06/12 01:22:27;;;;;;;;;;;14.70;97.70;;;;;;4231224;28;20334;-83
2022/06/12 01:24:54;;;;;;;;;;;14.70;97.70;;;;;;4232251;28;20298;-82
2022/06/12 01:27:13;;;;;;;;;;;14.70;98.70;;;;;;4246035;27;19969;-83
2022/06/12 01:29:20;;;;;;;;;;;14.60;98.60;;;;;;4249468;27;19965;-83
2022/06/12 01:31:26;;;;;;;;;;;14.60;98.40;;;;;;4250155;27;19924;-83
2022/06/12 01:33:42;;;;;;;;;;;14.60;98.00;;;;;;4232290;28;20035;-83
2022/06/12 01:35:53;;;;;;;;;;;14.50;98.00;;;;;;4250357;27;19919;-83
2022/06/12 01:37:54;;;;;;;;;;;14.50;98.70;;;;;;4250118;27;19927;-83
2022/06/12 01:39:58;;;;;;;;;;;14.50;98.50;;;;;;4232163;28;19924;-82
2022/06/12 01:42:03;;;;;;;;;;;14.40;98.60;;;;;;4250251;27;19919;-82
2022/06/12 01:44:06;;;;;;;;;;;14.40;98.50;;;;;;4250175;27;20014;-83
2022/06/12 01:46:07;;;;;;;;;;;14.40;98.60;;;;;;4250215;27;19926;-83
2022/06/12 01:48:13;;;;;;;;;;;14.40;98.70;;;;;;4249849;27;19919;-82
2022/06/12 01:50:17;;;;;;;;;;;14.40;97.80;;;;;;4250460;27;20494;-82
2022/06/12 01:52:23;;;;;;;;;;;14.30;98.00;;;;;;4231883;28;20006;-82
2022/06/12 01:54:50;;;;;;;;;;;14.30;98.30;;;;;;4249515;27;19923;-81
2022/06/12 01:56:57;;;;;;;;;;;14.30;98.70;;;;;;4227304;28;19941;-81
2022/06/12 01:59:09;;;;;;;;;;;14.30;98.50;;;;;;4249957;27;19966;-81
2022/06/12 02:01:14;;;;;;;;;;;14.20;98.80;;;;;;4250310;27;19926;-81
2022/06/12 02:03:28;;;;;;;;;;;14.20;99.40;;;;;;4249250;27;19924;-81
2022/06/12 02:05:32;;;;;;;;;;;14.20;99.50;;;;;;4250268;27;19919;-81
2022/06/12 02:07:38;;;;;;;;;;;14.20;99.50;;;;;;4214360;28;20012;-81
2022/06/12 02:09:41;;;;;;;;;;;14.20;99.50;;;;;;4249776;27;19919;-81
2022/06/12 02:14:10;;;;;;;;;;;14.20;99.90;;;;;;4249197;27;19973;-81
2022/06/12 02:16:15;;;;;;;;;;;14.20;99.40;;;;;;4231885;28;19959;-81
2022/06/12 02:18:33;;;;;;;;;;;14.20;99.70;;;;;;4249534;27;19923;-82
2022/06/12 02:20:36;;;;;;;;;;;14.20;99.90;;;;;;4246532;27;20431;-83
2022/06/12 02:22:39;;;;;;;;;;;14.20;99.90;;;;;;4232127;28;20370;-82
2022/06/12 02:24:42;;;;;;;;;;;14.20;99.90;;;;;;4231640;28;19919;-82
2022/06/12 02:26:58;;;;;;;;;;;14.20;99.90;;;;;;4232655;28;19978;-82
2022/06/12 02:29:01;;;;;;;;;;;14.10;99.90;;;;;;4232414;28;19919;-82
2022/06/12 02:31:04;;;;;;;;;;;14.20;99.90;;;;;;4232367;28;19970;-82
2022/06/12 02:33:06;;;;;;;;;;;14.10;99.90;;;;;;4232370;28;19932;-82
2022/06/12 02:35:11;;;;;;;;;;;14.20;99.90;;;;;;4232157;28;19920;-82
2022/06/12 02:37:16;;;;;;;;;;;14.20;99.90;;;;;;4232049;28;19927;-82
2022/06/12 02:39:22;;;;;;;;;;;14.30;99.90;;;;;;4232466;28;19926;-82
2022/06/12 02:41:27;;;;;;;;;;;14.30;99.90;;;;;;4214449;28;19920;-82
2022/06/12 02:43:30;;;;;;;;;;;14.30;99.90;;;;;;4232144;28;19919;-82
2022/06/12 02:45:37;;;;;;;;;;;14.20;99.90;;;;;;4213922;28;19979;-82
2022/06/12 02:47:38;;;;;;;;;;;14.20;99.90;;;;;;4213918;28;19942;-82
2022/06/12 02:49:42;;;;;;;;;;;14.20;99.90;;;;;;4231575;28;19923;-82
2022/06/12 02:51:49;;;;;;;;;;;14.20;99.90;;;;;;4232132;28;19969;-82
2022/06/12 02:53:58;;;;;;;;;;;14.30;99.90;;;;;;4213300;28;20035;-81
2022/06/12 02:56:08;;;;;;;;;;;14.20;99.90;;;;;;4200676;28;19975;-82
2022/06/12 02:58:20;;;;;;;;;;;14.20;99.90;;;;;;4229043;28;19926;-82
2022/06/12 03:00:26;;;;;;;;;;;14.20;99.90;;;;;;4230483;28;19963;-82
2022/06/12 03:02:32;;;;;;;;;;;14.20;99.90;;;;;;4231161;28;19927;-82
2022/06/12 03:04:38;;;;;;;;;;;14.20;99.90;;;;;;4231712;28;19927;-82
2022/06/12 03:06:40;;;;;;;;;;;14.10;99.90;;;;;;4231564;28;19919;-82
2022/06/12 03:08:42;;;;;;;;;;;14.10;99.90;;;;;;4196754;28;19927;-82
2022/06/12 03:10:52;;;;;;;;;;;14.10;99.90;;;;;;4231339;28;19919;-82
2022/06/12 03:12:53;;;;;;;;;;;14.00;99.90;;;;;;4234864;28;19934;-81
2022/06/12 03:14:57;;;;;;;;;;;14.00;99.90;;;;;;4248686;28;19923;-81
2022/06/12 03:16:57;;;;;;;;;;;13.90;99.90;;;;;;4248887;28;19919;-82
2022/06/12 03:19:00;;;;;;;;;;;13.90;99.90;;;;;;4248535;27;19919;-82
2022/06/12 03:21:05;;;;;;;;;;;13.90;99.90;;;;;;4251970;27;19926;-82
2022/06/12 03:23:16;;;;;;;;;;;13.90;99.90;;;;;;4233992;28;19927;-81
2022/06/12 03:25:16;;;;;;;;;;;13.80;99.90;;;;;;4251968;27;20415;-82
2022/06/12 03:27:23;;;;;;;;;;;13.80;99.90;;;;;;4233971;28;19926;-82
2022/06/12 03:29:35;;;;;;;;;;;13.80;99.90;;;;;;4233903;28;19926;-82
2022/06/12 03:31:46;;;;;;;;;;;13.80;99.90;;;;;;4251418;27;20257;-82
2022/06/12 03:33:50;;;;;;;;;;;13.70;99.90;;;;;;4251922;27;19926;-82
2022/06/12 03:35:57;;;;;;;;;;;13.70;99.90;;;;;;4252062;27;19923;-82
2022/06/12 03:38:08;;;;;;;;;;;13.70;99.90;;;;;;4233905;28;20002;-82
2022/06/12 03:40:29;;;;;;;;;;;13.70;99.90;;;;;;4251985;27;19919;-83
2022/06/12 03:42:32;;;;;;;;;;;13.70;99.90;;;;;;4232288;28;19943;-82
2022/06/12 03:44:41;;;;;;;;;;;13.70;99.90;;;;;;4252008;27;19945;-82
2022/06/12 03:46:47;;;;;;;;;;;13.70;99.90;;;;;;4251602;27;20014;-82
2022/06/12 03:48:57;;;;;;;;;;;13.70;99.90;;;;;;4251655;27;19963;-82
2022/06/12 03:50:58;;;;;;;;;;;13.70;99.90;;;;;;4251823;27;20045;-82
2022/06/12 03:52:58;;;;;;;;;;;13.60;99.90;;;;;;4233273;28;19923;-82
2022/06/12 03:55:10;;;;;;;;;;;13.60;99.90;;;;;;4233737;28;19920;-82
2022/06/12 03:59:46;;;;;;;;;;;13.60;99.90;;;;;;4233338;28;20449;-82
2022/06/12 04:01:47;;;;;;;;;;;13.60;99.90;;;;;;4233157;28;19942;-82
2022/06/12 04:03:48;;;;;;;;;;;13.60;99.90;;;;;;4233044;28;20022;-82
2022/06/12 04:05:50;;;;;;;;;;;13.60;99.90;;;;;;4250837;27;20376;-83
2022/06/12 04:07:52;;;;;;;;;;;13.60;99.90;;;;;;4233873;28;19926;-82
2022/06/12 04:09:54;;;;;;;;;;;13.50;99.90;;;;;;4251598;27;19927;-83
2022/06/12 04:11:59;;;;;;;;;;;13.60;99.90;;;;;;4251130;27;19941;-83
2022/06/12 04:14:02;;;;;;;;;;;13.60;99.90;;;;;;4233362;28;19924;-83
2022/06/12 04:16:05;;;;;;;;;;;13.60;99.90;;;;;;4232646;28;19985;-82
2022/06/12 04:18:06;;;;;;;;;;;13.50;99.90;;;;;;4251186;27;19926;-82
2022/06/12 04:20:13;;;;;;;;;;;13.50;99.90;;;;;;4232837;28;19920;-82
2022/06/12 04:22:14;;;;;;;;;;;13.60;99.90;;;;;;4215801;28;19927;-81
2022/06/12 04:24:16;;;;;;;;;;;13.60;99.90;;;;;;4215850;28;19973;-82
2022/06/12 04:26:20;;;;;;;;;;;13.60;99.90;;;;;;4233620;28;20514;-81
2022/06/12 04:28:26;;;;;;;;;;;13.60;99.90;;;;;;4234320;28;19920;-82
2022/06/12 04:30:29;;;;;;;;;;;13.70;99.90;;;;;;4233642;28;19993;-82
2022/06/12 04:32:30;;;;;;;;;;;13.70;99.90;;;;;;4216006;28;19978;-82
2022/06/12 04:34:36;;;;;;;;;;;13.80;99.90;;;;;;4233556;28;19946;-82
2022/06/12 04:36:37;;;;;;;;;;;13.80;99.90;;;;;;4234123;28;19920;-82
2022/06/12 04:38:38;;;;;;;;;;;13.90;99.90;;;;;;4216008;28;19927;-82
2022/06/12 04:40:38;;;;;;;;;;;13.90;99.90;;;;;;4233561;28;20291;-82
2022/06/12 04:42:39;;;;;;;;;;;14.00;99.90;;;;;;4233550;28;20326;-82
2022/06/12 04:44:40;;;;;;;;;;;14.00;99.90;;;;;;4233572;28;19919;-82
2022/06/12 04:46:41;;;;;;;;;;;14.00;99.90;;;;;;4234041;28;20364;-82
2022/06/12 04:48:43;;;;;;;;;;;14.00;99.90;;;;;;4215894;28;20315;-82
2022/06/12 04:50:44;;;;;;;;;;;14.10;99.90;;;;;;4233580;28;19923;-82
2022/06/12 04:52:44;;;;;;;;;;;14.10;99.90;;;;;;4233897;28;19942;-82
2022/06/12 04:54:45;;;;;;;;;;;14.10;99.90;;;;;;4232970;28;20331;-82
2022/06/12 04:56:46;;;;;;;;;;;14.10;99.90;;;;;;4233914;28;19926;-82
2022/06/12 04:58:47;;;;;;;;;;;14.10;99.90;;;;;;4233745;28;19942;-82
2022/06/12 05:00:48;;;;;;;;;;;14.20;99.90;;;;;;4233420;28;19919;-82
2022/06/12 05:02:49;;;;;;;;;;;14.10;99.90;;;;;;4233583;28;20261;-82
2022/06/12 05:04:50;;;;;;;;;;;14.10;99.90;;;;;;4234201;28;19923;-82
2022/06/12 05:06:50;;;;;;;;;;;14.10;99.90;;;;;;4233621;28;19926;-82
2022/06/12 05:08:52;;;;;;;;;;;14.10;99.90;;;;;;4233590;28;19926;-82
2022/06/12 05:10:53;;;;;;;;;;;14.00;99.90;;;;;;4233480;28;19926;-82
2022/06/12 05:12:53;;;;;;;;;;;14.10;99.90;;;;;;4215375;28;20455;-82
2022/06/12 05:14:54;;;;;;;;;;;14.10;99.90;;;;;;4233593;28;19923;-82
2022/06/12 05:16:57;;;;;;;;;;;14.10;99.90;;;;;;4233277;28;19920;-82
2022/06/12 05:18:58;;;;;;;;;;;14.10;99.90;;;;;;4217295;28;19954;-82
2022/06/12 05:20:58;;;;;;;;;;;14.10;99.90;;;;;;4249700;27;19945;-82
2022/06/12 05:22:59;;;;;;;;;;;14.20;99.90;;;;;;4231930;28;19924;-83
2022/06/12 05:24:59;;;;;;;;;;;14.40;99.90;;;;;;4250183;27;20007;-82
2022/06/12 05:27:03;;;;;;;;;;;14.30;99.90;;;;;;4249640;27;20303;-82
2022/06/12 05:29:05;;;;;;;;;;;14.40;99.90;;;;;;4250181;27;20064;-82
2022/06/12 05:31:06;;;;;;;;;;;14.50;99.90;;;;;;4214583;28;19920;-82
2022/06/12 05:33:07;;;;;;;;;;;14.50;99.90;;;;;;4250241;27;20367;-82
2022/06/12 05:35:09;;;;;;;;;;;14.60;99.90;;;;;;4250042;27;19919;-82
2022/06/12 05:37:10;;;;;;;;;;;14.70;99.90;;;;;;4231906;28;19920;-82
2022/06/12 05:39:11;;;;;;;;;;;14.80;99.90;;;;;;4250367;27;19919;-81
2022/06/12 05:41:13;;;;;;;;;;;14.80;99.90;;;;;;4231012;28;20191;-81
2022/06/12 05:43:14;;;;;;;;;;;14.90;99.90;;;;;;4249252;27;19923;-81
2022/06/12 05:45:17;;;;;;;;;;;15.00;99.90;;;;;;4249860;27;19919;-81
2022/06/12 05:47:18;;;;;;;;;;;15.10;99.90;;;;;;4249664;27;19919;-82
2022/06/12 05:49:18;;;;;;;;;;;15.20;99.90;;;;;;4250013;27;20367;-81
2022/06/12 05:51:19;;;;;;;;;;;15.20;99.90;;;;;;4249352;27;19970;-82
2022/06/12 05:53:21;;;;;;;;;;;15.30;99.90;;;;;;4231557;28;20036;-82
2022/06/12 05:55:22;;;;;;;;;;;15.40;99.90;;;;;;4249787;27;19962;-82
2022/06/12 05:57:22;;;;;;;;;;;15.40;99.90;;;;;;4231501;28;19927;-82
2022/06/12 05:59:23;;;;;;;;;;;15.50;99.90;;;;;;4231840;28;19923;-82
2022/06/12 06:01:24;;;;;;;;;;;15.60;99.90;;;;;;4249369;27;19923;-82
2022/06/12 06:03:24;;;;;;;;;;;15.60;99.90;;;;;;4249198;27;19919;-82
2022/06/12 06:05:25;;;;;;;;;;;15.70;99.90;;;;;;4249588;27;19926;-82
2022/06/12 06:07:25;;;;;;;;;;;15.80;99.90;;;;;;4231421;28;19930;-82
2022/06/12 06:09:27;;;;;;;;;;;15.90;99.90;;;;;;4249455;27;19930;-82
2022/06/12 06:11:27;;;;;;;;;;;15.90;99.90;;;;;;4231215;28;19970;-82
2022/06/12 06:13:28;;;;;;;;;;;16.00;99.90;;;;;;4249401;27;19920;-82
2022/06/12 06:15:28;;;;;;;;;;;16.20;99.90;;;;;;4249640;27;19919;-82
2022/06/12 06:17:30;;;;;;;;;;;16.30;99.90;;;;;;4230958;28;20010;-83
2022/06/12 06:19:32;;;;;;;;;;;16.40;99.90;;;;;;4249271;27;19919;-82
2022/06/12 06:21:33;;;;;;;;;;;16.50;99.90;;;;;;4219462;28;19920;-82
2022/06/12 06:23:35;;;;;;;;;;;16.50;99.90;;;;;;4232265;28;19931;-82
2022/06/12 06:25:36;;;;;;;;;;;16.50;99.90;;;;;;4231778;28;19927;-83
2022/06/12 06:27:37;;;;;;;;;;;16.60;99.90;;;;;;4232371;28;20394;-83
2022/06/12 06:29:38;;;;;;;;;;;16.60;99.90;;;;;;4232290;28;19920;-84
2022/06/12 06:31:38;;;;;;;;;;;16.60;99.90;;;;;;4232411;28;19919;-85
2022/06/12 06:33:39;;;;;;;;;;;16.70;99.90;;;;;;4232004;28;19926;-85
2022/06/12 06:35:40;;;;;;;;;;;16.80;99.90;;;;;;4214390;28;19927;-84
2022/06/12 06:37:42;;;;;;;;;;;16.80;99.90;;;;;;4214793;28;19964;-84
2022/06/12 06:39:42;;;;;;;;;;;16.70;99.90;;;;;;4232434;28;19965;-83
2022/06/12 06:41:43;;;;;;;;;;;16.60;99.90;;;;;;4232317;28;19924;-84
2022/06/12 06:46:14;;;;;;;;;;;16.70;99.90;;;;;;4232145;28;19972;-83
2022/06/12 06:48:15;;;;;;;;;;;16.80;99.90;;;;;;4231913;28;19965;-82
2022/06/12 06:50:16;;;;;;;;;;;16.90;99.90;;;;;;4231841;28;20317;-82
2022/06/12 06:52:17;;;;;;;;;;;17.00;99.90;;;;;;4231939;28;19926;-82
2022/06/12 06:54:18;;;;;;;;;;;17.10;99.90;;;;;;4232224;28;20010;-83
2022/06/12 06:56:19;;;;;;;;;;;17.10;99.90;;;;;;4234075;28;19927;-82
2022/06/12 06:58:22;;;;;;;;;;;17.30;99.90;;;;;;4240078;28;19920;-82
2022/06/12 07:00:30;;;;;;;;;;;17.40;99.90;;;;;;4242596;28;19919;-82
2022/06/12 07:02:31;;;;;;;;;;;17.50;99.90;;;;;;4242098;28;19948;-83
2022/06/12 07:04:32;;;;;;;;;;;17.70;99.90;;;;;;4240799;28;19923;-82
2022/06/12 07:06:33;;;;;;;;;;;17.70;99.90;;;;;;4238682;28;19920;-82
2022/06/12 07:08:34;;;;;;;;;;;17.80;99.90;;;;;;4235552;28;19982;-82
2022/06/12 07:10:35;;;;;;;;;;;17.90;99.90;;;;;;4236558;28;19926;-82
2022/06/12 07:12:36;;;;;;;;;;;17.90;99.90;;;;;;4236118;28;19924;-82
2022/06/12 07:14:37;;;;;;;;;;;18.00;99.90;;;;;;4236919;28;19963;-82
2022/06/12 07:16:38;;;;;;;;;;;18.10;99.90;;;;;;4239793;28;20269;-82
2022/06/12 07:18:39;;;;;;;;;;;18.20;99.90;;;;;;4238847;28;19920;-82
2022/06/12 07:20:46;;;;;;;;;;;18.20;99.90;;;;;;4252883;28;19964;-83
2022/06/12 07:22:47;;;;;;;;;;;18.30;99.90;;;;;;4254103;27;19923;-82
2022/06/12 07:24:48;;;;;;;;;;;18.40;99.90;;;;;;4253601;28;19963;-82
2022/06/12 07:26:48;;;;;;;;;;;18.40;99.40;;;;;;4252179;28;20295;-82
2022/06/12 07:28:50;;;;;;;;;;;18.40;99.70;;;;;;4234299;28;19951;-82
2022/06/12 07:30:52;;;;;;;;;;;18.50;99.90;;;;;;4252211;28;19919;-81
2022/06/12 07:32:53;;;;;;;;;;;18.60;99.60;;;;;;4252453;28;19919;-81
2022/06/12 07:34:54;;;;;;;;;;;18.70;99.60;;;;;;4252979;28;19927;-82
2022/06/12 07:36:55;;;;;;;;;;;18.80;99.60;;;;;;4252272;28;19926;-82
2022/06/12 07:38:56;;;;;;;;;;;18.80;99.50;;;;;;4253150;28;20362;-82
2022/06/12 07:40:59;;;;;;;;;;;18.90;99.60;;;;;;4253188;28;19919;-82
2022/06/12 07:43:00;;;;;;;;;;;19.00;99.60;;;;;;4251977;28;19968;-81
2022/06/12 07:45:01;;;;;;;;;;;19.10;98.00;;;;;;4253104;28;20015;-82
2022/06/12 07:47:03;;;;;;;;;;;19.30;97.20;;;;;;4253329;28;19930;-82
2022/06/12 07:49:07;;;;;;;;;;;19.40;96.90;;;;;;4254828;28;19946;-82
2022/06/12 07:51:10;;;;;;;;;;;19.40;96.70;;;;;;4251652;28;19920;-84
2022/06/12 07:53:12;;;;;;;;;;;19.40;95.90;;;;;;4252960;28;20010;-82
2022/06/12 07:55:15;;;;;;;;;;;19.40;94.60;;;;;;4253325;28;19995;-82
2022/06/12 07:57:16;;;;;;;;;;;19.30;94.80;;;;;;4251062;28;19967;-82
2022/06/12 07:59:18;;;;;;;;;;;19.60;96.00;;;;;;4250540;28;19950;-82
2022/06/12 08:01:20;;;;;;;;;;;19.70;94.50;;;;;;4252199;28;19919;-82
2022/06/12 08:03:22;;;;;;;;;;;19.80;93.40;;;;;;4249017;28;19919;-82
2022/06/12 08:05:23;;;;;;;;;;;20.00;94.80;;;;;;4231350;28;19927;-82
2022/06/12 08:07:23;;;;;;;;;;;20.20;95.40;;;;;;4252124;27;19927;-82
2022/06/12 08:09:24;;;;;;;;;;;20.40;95.50;;;;;;4251625;27;19930;-83
2022/06/12 08:11:26;;;;;;;;;;;20.60;94.40;;;;;;4251522;27;20276;-82
2022/06/12 08:13:27;;;;;;;;;;;20.70;93.30;;;;;;4251594;27;19919;-82
2022/06/12 08:15:28;;;;;;;;;;;20.70;92.50;;;;;;4251305;27;19919;-82
2022/06/12 08:17:28;;;;;;;;;;;20.80;92.00;;;;;;4251686;27;19920;-82
2022/06/12 08:21:48;;;;;;;;;;;20.60;90.40;;;;;;4237458;27;19920;-83
2022/06/12 08:23:50;;;;;;;;;;;20.50;90.80;;;;;;4234262;28;20014;-83
2022/06/12 08:25:52;;;;;;;;;;;20.60;91.40;;;;;;4235414;28;20376;-81
2022/06/12 08:27:53;;;;;;;;;;;20.70;91.70;;;;;;4239176;28;19920;-83
2022/06/12 08:29:53;;;;;;;;;;;21.00;90.50;;;;;;4238815;28;19970;-82
2022/06/12 08:31:57;;;;;;;;;;;21.20;90.80;;;;;;4235992;28;20023;-83
2022/06/12 08:34:01;;;;;;;;;;;21.40;90.50;;;;;;4238068;28;19919;-83
2022/06/12 08:36:02;;;;;;;;;;;21.50;90.10;;;;;;4236482;28;19927;-83
2022/06/12 08:38:02;;;;;;;;;;;21.50;89.10;;;;;;4237573;28;19920;-83
2022/06/12 08:40:08;;;;;;;;;;;21.80;88.90;;;;;;4240915;28;19919;-83
2022/06/12 08:42:09;;;;;;;;;;;21.80;86.70;;;;;;4234687;28;19942;-83
2022/06/12 08:44:16;;;;;;;;;;;21.80;87.80;;;;;;4238032;28;19920;-83
2022/06/12 08:46:37;;;;;;;;;;;21.70;87.10;;;;;;4238535;28;19919;-83
2022/06/12 08:48:50;;;;;;;;;;;21.60;85.30;;;;;;4234600;28;19919;-81
2022/06/12 08:50:55;;;;;;;;;;;21.70;88.60;;;;;;4235657;28;19980;-82
2022/06/12 08:52:59;;;;;;;;;;;21.60;89.20;;;;;;4235533;28;20379;-82
2022/06/12 08:55:02;;;;;;;;;;;21.60;88.70;;;;;;4236050;28;19920;-82
2022/06/12 08:57:09;;;;;;;;;;;21.60;87.30;;;;;;4235721;28;20480;-82
2022/06/12 08:59:15;;;;;;;;;;;21.40;88.60;;;;;;4236033;28;20347;-82
2022/06/12 09:01:17;;;;;;;;;;;21.20;88.20;;;;;;4237449;28;19919;-82
2022/06/12 09:03:20;;;;;;;;;;;21.40;89.40;;;;;;4237565;28;19927;-82
2022/06/12 09:05:22;;;;;;;;;;;21.50;87.80;;;;;;4236059;28;19924;-82
2022/06/12 09:07:38;;;;;;;;;;;21.70;90.00;;;;;;4235891;28;19919;-82
2022/06/12 09:09:39;;;;;;;;;;;22.10;90.00;;;;;;4236139;28;19919;-82
2022/06/12 09:11:39;;;;;;;;;;;22.20;88.60;;;;;;4237417;28;19959;-82
2022/06/12 09:13:47;;;;;;;;;;;22.20;88.60;;;;;;4236232;28;19920;-82
2022/06/12 09:15:56;;;;;;;;;;;22.10;86.40;;;;;;4238032;28;20403;-82
2022/06/12 09:18:04;;;;;;;;;;;22.00;86.40;;;;;;4219411;28;19919;-82
2022/06/12 09:20:24;;;;;;;;;;;21.90;86.60;;;;;;4237918;28;19920;-82
2022/06/12 09:22:27;;;;;;;;;;;21.90;86.10;;;;;;4236272;28;20268;-82
2022/06/12 09:24:45;;;;;;;;;;;21.80;87.60;;;;;;4236201;28;19927;-82
2022/06/12 09:26:47;;;;;;;;;;;21.60;85.70;;;;;;4235118;28;20291;-82
2022/06/12 09:28:47;;;;;;;;;;;21.50;86.80;;;;;;4234130;28;19920;-85
2022/06/12 09:31:05;;;;;;;;;;;21.40;87.70;;;;;;4233633;28;20358;-85
2022/06/12 09:33:20;;;;;;;;;;;21.20;88.10;;;;;;4233851;28;19919;-85
2022/06/12 09:35:27;;;;;;;;;;;21.10;88.80;;;;;;4234576;28;19972;-85
2022/06/12 09:40:12;;;;;;;;;;;21.20;89.20;;;;;;4234518;28;19997;-85
2022/06/12 09:42:14;;;;;;;;;;;21.60;89.10;;;;;;4234528;28;20287;-85
2022/06/12 09:44:23;;;;;;;;;;;22.00;88.90;;;;;;4234033;28;20363;-85
2022/06/12 09:46:24;;;;;;;;;;;22.40;87.00;;;;;;4232642;28;19955;-85
2022/06/12 09:48:27;;;;;;;;;;;22.70;81.60;;;;;;4216159;28;19920;-85
2022/06/12 09:50:37;;;;;;;;;;;22.80;84.00;;;;;;4233898;28;19919;-86
2022/06/12 09:52:49;;;;;;;;;;;22.60;79.60;;;;;;4214835;28;20319;-84
2022/06/12 09:54:53;;;;;;;;;;;22.30;80.10;;;;;;4233065;28;19927;-85
2022/06/12 09:56:58;;;;;;;;;;;22.10;81.10;;;;;;4231457;28;19923;-85
2022/06/12 09:59:08;;;;;;;;;;;22.00;80.80;;;;;;4232471;28;19966;-85
2022/06/12 10:01:24;;;;;;;;;;;22.00;78.30;;;;;;4239589;27;19919;-85
2022/06/12 10:03:39;;;;;;;;;;;22.20;78.30;;;;;;4239983;27;19927;-85
2022/06/12 10:05:45;;;;;;;;;;;22.50;78.60;;;;;;4249816;27;20003;-85
2022/06/12 10:08:06;;;;;;;;;;;22.70;73.40;;;;;;4231717;28;19920;-84
2022/06/12 10:10:11;;;;;;;;;;;22.70;70.50;;;;;;4230917;28;19919;-85
2022/06/12 10:12:20;;;;;;;;;;;22.70;69.50;;;;;;4231660;28;19920;-84
2022/06/12 10:14:24;;;;;;;;;;;23.00;72.00;;;;;;4231666;28;20081;-85
2022/06/12 10:16:29;;;;;;;;;;;23.10;68.60;;;;;;4250237;27;19967;-84
2022/06/12 10:18:36;;;;;;;;;;;22.80;64.70;;;;;;4249742;27;19919;-84
2022/06/12 10:20:40;;;;;;;;;;;22.70;66.60;;;;;;4245985;27;19926;-84
2022/06/12 10:22:45;;;;;;;;;;;22.70;63.70;;;;;;4232317;28;19919;-85
2022/06/12 10:24:46;;;;;;;;;;;22.70;64.10;;;;;;4233307;28;19958;-84
2022/06/12 10:27:00;;;;;;;;;;;22.80;64.00;;;;;;4234564;28;19920;-84
2022/06/12 10:29:05;;;;;;;;;;;22.90;59.30;;;;;;4231794;28;19954;-85
2022/06/12 10:31:06;;;;;;;;;;;23.10;63.90;;;;;;4232624;28;20010;-85
2022/06/12 10:33:08;;;;;;;;;;;23.40;63.90;;;;;;4232995;28;19919;-85
2022/06/12 10:35:16;;;;;;;;;;;23.70;64.10;;;;;;4214304;28;19920;-85
2022/06/12 10:37:28;;;;;;;;;;;24.00;61.30;;;;;;4232514;28;19981;-86
2022/06/12 10:39:28;;;;;;;;;;;24.00;57.60;;;;;;4214430;28;19920;-86
2022/06/12 10:41:30;;;;;;;;;;;24.00;57.10;;;;;;4232502;28;20338;-84
2022/06/12 10:43:35;;;;;;;;;;;24.00;57.40;;;;;;4232735;28;19920;-85
2022/06/12 10:45:38;;;;;;;;;;;24.20;57.30;;;;;;4232835;28;20329;-85
2022/06/12 10:47:43;;;;;;;;;;;24.30;58.70;;;;;;4232235;28;19920;-85
2022/06/12 10:49:44;;;;;;;;;;;24.60;60.30;;;;;;4232905;27;19924;-85
2022/06/12 10:51:46;;;;;;;;;;;24.80;58.90;;;;;;4249292;27;19919;-85
2022/06/12 10:53:47;;;;;;;;;;;24.80;57.10;;;;;;4230991;28;19926;-85
2022/06/12 10:55:53;;;;;;;;;;;25.00;57.80;;;;;;4249427;27;19919;-84
2022/06/12 10:58:02;;;;;;;;;;;25.10;59.80;;;;;;4233128;28;20295;-85
2022/06/12 11:00:12;;;;;;;;;;;25.30;58.90;;;;;;4232637;28;20375;-85
2022/06/12 11:02:20;;;;;;;;;;;25.10;57.50;;;;;;4213542;28;19924;-85
2022/06/12 11:04:45;;;;;;;;;;;24.90;55.10;;;;;;4232204;28;19926;-85
2022/06/12 11:06:58;;;;;;;;;;;24.80;57.80;;;;;;4213939;28;19942;-85
2022/06/12 11:11:45;;;;;;;3.67;0.98;;;25.10;59.40;;;;;;4228021;27;1973768;-85
2022/06/12 11:14:17;;;;;;;2.72;1.45;;;24.50;62.60;;;;;;4262223;27;20054;-84
2022/06/12 11:16:42;;;;;;;12.98;2.22;;;24.00;59.40;;;;;;4280370;27;20066;-85
2022/06/12 11:19:10;;;;;;;2.60;1.13;;;24.10;62.30;;;;;;4280268;27;20046;-85
2022/06/12 11:21:37;;;;;;;5.22;1.30;;;24.50;62.30;;;;;;4253551;27;20043;-85
2022/06/12 11:23:52;;;;;;;2.92;1.30;;;24.50;61.20;;;;;;4263167;27;20072;-86
2022/06/12 11:26:05;;;;;;;4.13;1.65;;;24.40;59.50;;;;;;4263013;27;20532;-86
2022/06/12 11:28:42;;;;;;;5.60;1.27;;;24.40;60.70;;;;;;4227400;28;20151;-86
2022/06/12 11:30:55;;;;;;;5.20;1.20;;;24.40;56.50;;;;;;4244543;28;20541;-85
2022/06/12 11:33:14;;;;;;;3.85;1.13;;;24.50;61.30;;;;;;4244554;28;20051;-85
2022/06/12 11:35:39;;;;;;;3.90;1.27;;;25.10;61.60;;;;;;4263181;27;20062;-86
2022/06/12 11:38:04;;;;;;;6.43;1.80;;;25.30;57.30;;;;;;4245209;28;20080;-85
2022/06/12 11:40:27;;;;;;;3.63;0.90;;;25.50;55.60;;;;;;4262357;27;20039;-86
2022/06/12 11:42:59;;;;;;;6.00;1.38;;;25.60;54.20;;;;;;4262583;27;20050;-85
2022/06/12 11:45:18;;;;;;;5.07;1.23;;;25.70;53.70;;;;;;4266654;27;20474;-86
2022/06/12 11:47:50;;;;;;;4.03;1.00;;;25.70;55.80;;;;;;4279865;27;20410;-86
2022/06/12 11:49:52;;;;;;;4.82;1.10;;;26.00;55.00;;;;;;4260740;27;20531;-86
2022/06/12 11:52:05;;;;;;;5.57;1.33;;;25.60;56.20;;;;;;4279822;27;20496;-86
2022/06/12 11:54:16;;;;;;;3.53;1.00;;;25.70;56.70;;;;;;4280102;27;20048;-85
2022/06/12 11:56:38;;;;;;;4.20;0.90;;;25.80;54.50;;;;;;4279891;27;20157;-86
2022/06/12 11:58:40;;;;;;;4.70;1.13;;;25.50;55.10;;;;;;4279478;27;20035;-87
2022/06/12 12:01:12;;;;;;;3.83;1.00;;;25.70;55.20;;;;;;4280103;27;20034;-86
2022/06/12 12:03:19;;;;;;;9.80;1.25;;;25.70;53.40;;;;;;4266597;27;20118;-85
2022/06/12 12:05:49;;;;;;;3.80;1.20;;;25.60;54.00;;;;;;4263095;27;20078;-85
2022/06/12 12:08:35;;;;;;;4.47;1.00;;;25.30;53.40;;;;;;4263839;27;20110;-86
2022/06/12 12:10:56;;;;;;;6.35;2.10;;;25.30;51.70;;;;;;4245111;28;20601;-85
2022/06/12 12:13:09;;;;;;;7.32;1.35;;;25.40;54.30;;;;;;4263728;27;20077;-85
2022/06/12 12:15:25;;;;;;;3.13;1.00;;;25.30;54.30;;;;;;4263229;27;20050;-85
2022/06/12 12:17:31;;;;;;;4.72;0.80;;;25.40;52.90;;;;;;4263924;27;20050;-85
2022/06/12 12:19:46;;;;;;;4.68;1.10;;;25.30;54.20;;;;;;4263494;27;20047;-84
2022/06/12 12:22:02;;;;;;;3.17;1.40;;;25.40;52.80;;;;;;4244697;27;20074;-84